Time;durP1;ratioP1;P1;durP2;ratioP2;P2;SDS_P1;SDS_P2;PMS_P1;PMS_P2;Temp;Humidity;BMP_temperature;BMP_pressure;BME280_temperature;BME280_humidity;BME280_pressure;Samples;Min_cycle;Max_cycle;Signal;HPM_P1;HPM_P2
2023/04/07 17:37:08;;;;;;;;;;;;;;;;;;5711996;23;7070;-94
2023/04/07 17:40:08;;;;;;;;;;;;;;;;;;5051104;28;7339;-94
2023/04/07 17:42:55;;;;;;;;;;;;;;;;;;5045012;28;6999;-94
2023/04/07 17:50:50;;;;;;;;;;;;;;;;;;5032025;28;7077;-94
2023/04/07 17:59:01;;;;;;;;;;;;;;;;;;5977800;23;6904;-93
2023/04/07 18:01:52;;;;;;;;;;;;;;;;;;4989725;28;7417;-94
2023/04/07 18:04:50;;;;;;;;;;;;;;;;;;5036641;28;6968;-93
2023/04/07 18:07:53;;;;;;;;;;;;;;;;;;5046855;28;6924;-95
2023/04/07 18:10:49;;;;;;;;;;;;;;;;;;5045667;28;7408;-95
2023/04/07 18:14:00;;;;;;;;;;;;;;;;;;5048280;28;6870;-93
2023/04/07 18:16:37;;;;;;;;;;;;;;;;;;5017052;28;6959;-93
2023/04/07 18:19:07;;;;;;;;;;;;;;;;;;5496141;23;7000;-93
2023/04/07 18:29:30;;;;;;;;;;;;;;;;;;5183682;22;6891;-95
2023/04/07 18:32:09;;;;;;;;;;;;;;;;;;5067139;28;7339;-94
2023/04/07 19:45:53;;;;;;;;;;;;;;;;;;6101230;23;7547;-93
2023/04/07 19:48:18;;;;;;;;;;;;;;;;;;5011893;28;7272;-90
2023/04/07 19:50:48;;;;;;;;;;;;;;;;;;4991256;28;8658;-89
2023/04/07 19:53:15;;;;;;;;;;;;;;;;;;4987460;28;8836;-89
2023/04/07 19:55:42;;;;;;;;;;;;;;;;;;4995769;28;8687;-90
2023/04/07 19:58:08;;;;;;;;;;;;;;;;;;5001124;28;8386;-90
2023/04/07 20:00:35;;;;;;;;;;;;;;;;;;4988247;28;7229;-90
2023/04/07 20:03:06;;;;;;;;;;;;;;;;;;4990892;28;7001;-88
2023/04/07 20:05:33;;;;;;;;;;;;;;;;;;4990628;28;8313;-89
2023/04/07 20:08:00;;;;;;;;;;;;;;;;;;4990902;28;7121;-90
2023/04/07 20:10:26;;;;;;;;;;;;;;;;;;4990872;28;7037;-90
2023/04/07 20:12:52;;;;;;;;;;;;;;;;;;4991066;28;8291;-90
2023/04/07 20:15:17;;;;;;;;;;;;;;;;;;4990716;28;7034;-90
2023/04/07 20:17:45;;;;;;;;;;;;;;;;;;4990636;28;8413;-89
2023/04/07 20:20:11;;;;;;;;;;;;;;;;;;4990672;28;7066;-90
2023/04/07 20:22:37;;;;;;;;;;;;;;;;;;4990537;28;7237;-89
2023/04/07 20:25:04;;;;;;;;;;;;;;;;;;4990741;28;8828;-90
2023/04/07 20:27:33;;;;;;;;;;;;;;;;;;4990230;28;7237;-89
2023/04/07 20:29:59;;;;;;;;;;;;;;;;;;4990403;28;7147;-89
2023/04/07 20:32:25;;;;;;;;;;;;;;;;;;4988351;28;7157;-89
2023/04/07 20:34:51;;;;;;;;;;;;;;;;;;5000328;28;8319;-90
2023/04/07 20:37:17;;;;;;;;;;;;;;;;;;4983082;28;7151;-90
2023/04/07 20:39:42;;;;;;;;;;;;;;;;;;4986555;28;7006;-90
2023/04/07 20:42:08;;;;;;;;;;;;;;;;;;4983692;28;7145;-90
2023/04/07 20:44:34;;;;;;;;;;;;;;;;;;4978926;28;6979;-89
2023/04/07 20:47:05;;;;;;;;;;;;;;;;;;4983044;28;6842;-90
2023/04/07 20:49:31;;;;;;;;;;;;;;;;;;5000114;28;7056;-90
2023/04/07 20:51:56;;;;;;;;;;;;;;;;;;4983507;28;8366;-90
2023/04/07 20:54:22;;;;;;;;;;;;;;;;;;4982508;28;8443;-89
2023/04/07 20:56:48;;;;;;;;;;;;;;;;;;4990240;28;6991;-90
2023/04/07 20:59:13;;;;;;;;;;;;;;;;;;4999252;28;7483;-89
2023/04/07 21:01:39;;;;;;;;;;;;;;;;;;4988318;28;7096;-89
2023/04/07 21:04:04;;;;;;;;;;;;;;;;;;5005175;28;7409;-89
2023/04/07 21:06:30;;;;;;;;;;;;;;;;;;4993490;28;8435;-89
2023/04/07 21:08:55;;;;;;;;;;;;;;;;;;4993964;28;6826;-89
2023/04/07 21:11:21;;;;;;;;;;;;;;;;;;4982031;28;7294;-89
2023/04/07 21:13:46;;;;;;;;;;;;;;;;;;4977956;28;8392;-90
2023/04/07 21:16:12;;;;;;;;;;;;;;;;;;4981569;28;7362;-91
2023/04/07 21:18:37;;;;;;;;;;;;;;;;;;4978720;28;7032;-88
2023/04/07 21:21:03;;;;;;;;;;;;;;;;;;4983608;28;7049;-90
2023/04/07 21:23:30;;;;;;;;;;;;;;;;;;4982938;28;7166;-89
2023/04/07 21:26:00;;;;;;;;;;;;;;;;;;4992482;28;8689;-90
2023/04/07 21:28:26;;;;;;;;;;;;;;;;;;4982909;28;7144;-89
2023/04/07 21:30:54;;;;;;;;;;;;;;;;;;4987355;28;8638;-90
2023/04/07 21:33:20;;;;;;;;;;;;;;;;;;4981616;28;7027;-89
2023/04/07 21:35:46;;;;;;;;;;;;;;;;;;4986176;28;7018;-90
2023/04/07 21:38:11;;;;;;;;;;;;;;;;;;4984168;28;7210;-89
2023/04/07 21:40:37;;;;;;;;;;;;;;;;;;4979803;28;8374;-89
2023/04/07 21:43:02;;;;;;;;;;;;;;;;;;4981169;28;8372;-89
2023/04/07 21:45:28;;;;;;;;;;;;;;;;;;4981836;28;8549;-90
2023/04/07 21:47:54;;;;;;;;;;;;;;;;;;4983593;28;6995;-90
2023/04/07 21:50:19;;;;;;;;;;;;;;;;;;4986941;28;8359;-89
2023/04/07 21:52:49;;;;;;;;;;;;;;;;;;4980877;28;6992;-89
2023/04/07 21:55:17;;;;;;;;;;;;;;;;;;4987631;28;7110;-89
2023/04/07 21:57:43;;;;;;;;;;;;;;;;;;4980705;28;7284;-89
2023/04/07 22:00:10;;;;;;;;;;;;;;;;;;4980115;28;7099;-89
2023/04/07 22:02:36;;;;;;;;;;;;;;;;;;5001843;28;6852;-89
2023/04/07 22:05:02;;;;;;;;;;;;;;;;;;4984228;28;6982;-90
2023/04/07 22:07:28;;;;;;;;;;;;;;;;;;4980228;28;8320;-90
2023/04/07 22:09:54;;;;;;;;;;;;;;;;;;4983726;28;6997;-90
2023/04/07 22:12:20;;;;;;;;;;;;;;;;;;4998686;28;8731;-90
2023/04/07 22:14:45;;;;;;;;;;;;;;;;;;4985147;28;7027;-89
2023/04/07 22:17:14;;;;;;;;;;;;;;;;;;4986292;28;7033;-90
2023/04/07 22:19:40;;;;;;;;;;;;;;;;;;5007972;28;7047;-91
2023/04/07 22:22:06;;;;;;;;;;;;;;;;;;4985581;28;8715;-89
2023/04/07 22:24:33;;;;;;;;;;;;;;;;;;4987411;28;7253;-90
2023/04/07 22:26:58;;;;;;;;;;;;;;;;;;4987972;28;8655;-90
2023/04/07 22:29:24;;;;;;;;;;;;;;;;;;5004551;28;8414;-89
2023/04/07 22:31:50;;;;;;;;;;;;;;;;;;5003576;28;7002;-90
2023/04/07 22:34:15;;;;;;;;;;;;;;;;;;4990372;28;8299;-88
2023/04/07 22:36:41;;;;;;;;;;;;;;;;;;5001431;28;8298;-89
2023/04/07 22:39:07;;;;;;;;;;;;;;;;;;4988638;28;8458;-90
2023/04/07 22:41:34;;;;;;;;;;;;;;;;;;4989592;28;7123;-90
2023/04/07 22:43:59;;;;;;;;;;;;;;;;;;4988757;28;7349;-89
2023/04/07 22:46:25;;;;;;;;;;;;;;;;;;4988338;28;6895;-90
2023/04/07 22:48:51;;;;;;;;;;;;;;;;;;4994826;28;7021;-90
2023/04/07 22:51:16;;;;;;;;;;;;;;;;;;5004637;28;7025;-90
2023/04/07 22:53:42;;;;;;;;;;;;;;;;;;4986528;28;6985;-90
2023/04/07 22:56:07;;;;;;;;;;;;;;;;;;4981639;28;6974;-90
2023/04/07 22:58:33;;;;;;;;;;;;;;;;;;4977574;28;8429;-89
2023/04/07 23:00:58;;;;;;;;;;;;;;;;;;4986754;28;6818;-89
2023/04/07 23:03:24;;;;;;;;;;;;;;;;;;4982842;28;8291;-91
2023/04/07 23:05:50;;;;;;;;;;;;;;;;;;4991274;28;7245;-89
2023/04/07 23:08:15;;;;;;;;;;;;;;;;;;4985930;28;8292;-89
2023/04/07 23:10:41;;;;;;;;;;;;;;;;;;4988719;28;6837;-90
2023/04/07 23:13:07;;;;;;;;;;;;;;;;;;4986114;28;8634;-92
2023/04/07 23:15:33;;;;;;;;;;;;;;;;;;4975353;28;8553;-89
2023/04/07 23:17:58;;;;;;;;;;;;;;;;;;4986080;28;7158;-91
2023/04/07 23:20:24;;;;;;;;;;;;;;;;;;4977209;28;8436;-90
2023/04/07 23:22:49;;;;;;;;;;;;;;;;;;5000944;28;7100;-91
2023/04/07 23:25:15;;;;;;;;;;;;;;;;;;4991367;28;8468;-89
2023/04/07 23:27:41;;;;;;;;;;;;;;;;;;5007704;28;7092;-90
2023/04/07 23:30:07;;;;;;;;;;;;;;;;;;5007902;28;7046;-90
2023/04/07 23:32:33;;;;;;;;;;;;;;;;;;5007740;28;8263;-89
2023/04/07 23:34:59;;;;;;;;;;;;;;;;;;5007885;28;7136;-90
2023/04/07 23:37:25;;;;;;;;;;;;;;;;;;5004333;28;7098;-90
2023/04/07 23:39:50;;;;;;;;;;;;;;;;;;4999216;28;6825;-89
2023/04/07 23:42:16;;;;;;;;;;;;;;;;;;4987889;28;8485;-89
2023/04/07 23:44:41;;;;;;;;;;;;;;;;;;4987967;28;7308;-90
2023/04/07 23:47:07;;;;;;;;;;;;;;;;;;4987653;28;8349;-90
2023/04/07 23:49:33;;;;;;;;;;;;;;;;;;4987833;28;7371;-90
2023/04/07 23:51:59;;;;;;;;;;;;;;;;;;4994081;28;8781;-90
2023/04/07 23:54:24;;;;;;;;;;;;;;;;;;4990809;28;6979;-90
2023/04/07 23:56:50;;;;;;;;;;;;;;;;;;4998594;28;8293;-92
2023/04/07 23:59:16;;;;;;;;;;;;;;;;;;5007378;28;6984;-90
